createdAt,value
2019-03-31T00:01:24.698Z,101743.59
2019-03-31T00:03:53.126Z,101740.35
2019-03-31T00:06:21.578Z,101742.92
2019-03-31T00:08:49.996Z,101742.23
2019-03-31T00:11:18.441Z,101751.05
2019-03-31T00:13:46.859Z,101745.61
2019-03-31T00:16:15.381Z,101753.77
2019-03-31T00:18:43.799Z,101751.38
2019-03-31T00:21:12.264Z,101745.22
2019-03-31T00:23:40.681Z,101749.44
2019-03-31T00:26:09.134Z,101743.84
2019-03-31T00:28:37.564Z,101740.20
2019-03-31T00:31:06.552Z,101746.65
2019-03-31T00:33:34.984Z,101745.63
2019-03-31T00:36:03.430Z,101747.48
2019-03-31T00:38:31.854Z,101749.80
2019-03-31T00:41:00.324Z,101745.17
2019-03-31T00:43:28.746Z,101752.39
2019-03-31T00:45:57.238Z,101757.98
2019-03-31T00:48:25.701Z,101760.70
2019-03-31T00:50:54.107Z,101763.63
2019-03-31T00:53:22.570Z,101763.75
2019-03-31T00:55:50.988Z,101762.37
2019-03-31T00:58:19.503Z,101763.85
2019-03-31T01:00:49.629Z,101762.11
2019-03-31T01:03:20.118Z,101771.20
2019-03-31T01:05:48.599Z,101767.92
2019-03-31T01:08:17.491Z,101770.10
2019-03-31T01:10:45.914Z,101774.31
2019-03-31T01:13:14.431Z,101768.59
2019-03-31T01:15:43.220Z,101784.52
2019-03-31T01:18:12.098Z,101783.30
2019-03-31T01:20:40.858Z,101789.23
2019-03-31T01:23:09.476Z,101777.02
2019-03-31T01:25:37.966Z,101785.84
2019-03-31T01:28:06.408Z,101785.84
2019-03-31T01:30:34.834Z,101794.05
2019-03-31T01:33:03.629Z,101786.19
2019-03-31T01:35:32.121Z,101786.19
2019-03-31T01:38:00.709Z,101811.26
2019-03-31T01:40:29.173Z,101811.73
2019-03-31T01:42:57.731Z,101806.13
2019-03-31T01:45:26.624Z,101806.13
2019-03-31T01:47:55.206Z,101798.88
2019-03-31T01:50:25.403Z,101818.31
2019-03-31T01:52:53.855Z,101821.58
2019-03-31T01:55:22.341Z,101826.87
2019-03-31T01:57:50.796Z,101825.75
2019-03-31T02:00:26.655Z,101829.83
2019-03-31T02:02:55.182Z,101828.67
2019-03-31T02:05:23.607Z,101823.78
2019-03-31T02:07:52.052Z,101824.31
2019-03-31T02:10:20.466Z,101844.83
2019-03-31T02:12:48.923Z,101844.83
2019-03-31T02:15:17.411Z,101837.09
2019-03-31T02:17:45.827Z,101840.72
2019-03-31T02:20:14.276Z,101844.45
2019-03-31T02:22:42.704Z,101840.62
2019-03-31T02:25:11.150Z,101851.20
2019-03-31T02:27:39.570Z,101862.92
2019-03-31T02:30:08.191Z,101842.95
2019-03-31T02:32:36.605Z,101842.95
2019-03-31T02:35:05.825Z,101855.45
2019-03-31T02:37:34.232Z,101855.45
2019-03-31T02:40:02.745Z,101860.64
2019-03-31T02:42:31.161Z,101868.81
2019-03-31T02:44:59.604Z,101869.67
2019-03-31T02:47:28.013Z,101869.67
2019-03-31T02:49:56.461Z,101874.53
2019-03-31T02:52:24.944Z,101874.53
2019-03-31T02:54:53.389Z,101870.78
2019-03-31T02:57:22.475Z,101870.78
2019-03-31T02:59:51.393Z,101873.48
2019-03-31T03:02:21.081Z,101877.79
2019-03-31T03:04:50.094Z,101868.59
2019-03-31T03:07:19.075Z,101872.36
2019-03-31T03:09:49.421Z,101872.36
2019-03-31T03:12:19.280Z,101868.90
2019-03-31T03:14:49.831Z,101869.45
2019-03-31T03:17:18.314Z,101869.45
2019-03-31T03:19:46.753Z,101862.95
2019-03-31T03:22:15.175Z,101862.82
2019-03-31T03:24:43.621Z,101862.82
2019-03-31T03:27:12.038Z,101843.81
2019-03-31T03:29:40.471Z,101859.69
2019-03-31T03:32:08.904Z,101851.36
2019-03-31T03:34:37.353Z,101851.36
2019-03-31T03:37:05.849Z,101862.31
2019-03-31T03:39:34.272Z,101862.31
2019-03-31T03:42:02.870Z,101867.59
2019-03-31T03:44:31.301Z,101867.59
2019-03-31T03:46:59.746Z,101866.77
2019-03-31T03:49:28.164Z,101870.31
2019-03-31T03:51:56.609Z,101874.00
2019-03-31T03:54:25.042Z,101876.22
2019-03-31T03:56:53.482Z,101876.22
2019-03-31T03:59:21.901Z,101879.39
2019-03-31T04:01:50.350Z,101885.06
2019-03-31T04:04:18.757Z,101885.06
2019-03-31T04:06:47.205Z,101865.70
2019-03-31T04:09:15.717Z,101885.48
2019-03-31T04:11:44.152Z,101886.62
2019-03-31T04:14:12.572Z,101885.89
2019-03-31T04:16:41.038Z,101882.92
2019-03-31T04:19:09.457Z,101899.92
2019-03-31T04:21:37.896Z,101899.92
2019-03-31T04:24:06.320Z,101904.41
2019-03-31T04:26:34.763Z,101904.41
2019-03-31T04:29:03.186Z,101902.13
2019-03-31T04:31:31.630Z,101902.13
2019-03-31T04:34:00.051Z,101907.84
2019-03-31T04:36:28.492Z,101903.92
2019-03-31T04:39:00.069Z,101907.73
2019-03-31T04:41:27.075Z,101907.73
2019-03-31T04:43:55.499Z,101912.07
2019-03-31T04:46:23.934Z,101912.07
2019-03-31T04:48:52.358Z,101908.94
2019-03-31T04:51:20.771Z,101906.08
2019-03-31T04:53:49.291Z,101913.58
2019-03-31T04:56:17.702Z,101909.29
2019-03-31T04:58:46.142Z,101909.29
2019-03-31T05:01:14.630Z,101901.34
2019-03-31T05:03:43.075Z,101911.09
2019-03-31T05:06:11.502Z,101926.34
2019-03-31T05:08:39.946Z,101926.34
2019-03-31T05:11:08.368Z,101934.80
2019-03-31T05:13:36.817Z,101934.80
2019-03-31T05:16:05.303Z,101931.94
2019-03-31T05:18:33.749Z,101940.69
2019-03-31T05:21:02.238Z,101947.48
2019-03-31T05:23:30.685Z,101947.31
2019-03-31T05:25:59.097Z,101945.37
2019-03-31T05:28:27.538Z,101945.37
2019-03-31T05:30:55.953Z,101960.56
2019-03-31T05:33:24.398Z,101967.11
2019-03-31T05:35:52.825Z,101967.95
2019-03-31T05:38:21.266Z,101975.19
2019-03-31T05:40:49.720Z,101973.41
2019-03-31T05:43:18.131Z,101989.87
2019-03-31T05:45:46.540Z,101989.87
2019-03-31T05:48:15.028Z,101986.36
2019-03-31T05:50:43.472Z,101986.36
2019-03-31T05:53:11.880Z,101987.42
2019-03-31T05:55:40.326Z,101985.98
2019-03-31T05:58:08.742Z,101994.47
2019-03-31T06:00:42.431Z,101988.44
2019-03-31T06:03:10.865Z,102003.52
2019-03-31T06:05:39.305Z,102009.69
2019-03-31T06:08:07.790Z,102009.69
2019-03-31T06:10:36.275Z,101997.48
2019-03-31T06:13:05.162Z,102005.22
2019-03-31T06:15:33.601Z,102008.91
2019-03-31T06:18:02.011Z,102006.64
2019-03-31T06:20:30.517Z,102014.11
2019-03-31T06:22:58.928Z,102020.48
2019-03-31T06:25:27.369Z,102015.94
2019-03-31T06:27:55.951Z,102028.55
2019-03-31T06:30:24.530Z,102012.61
2019-03-31T06:32:55.473Z,102028.24
2019-03-31T06:35:23.099Z,102032.64
2019-03-31T06:37:51.512Z,102037.84
2019-03-31T06:40:20.026Z,102034.13
2019-03-31T06:42:48.443Z,102037.26
2019-03-31T06:45:16.890Z,102047.69
2019-03-31T06:47:45.334Z,102054.61
2019-03-31T06:50:13.821Z,102059.12
2019-03-31T06:52:42.251Z,102056.45
2019-03-31T06:55:10.653Z,102056.45
2019-03-31T06:57:39.092Z,102071.61
2019-03-31T07:00:07.731Z,102076.77
2019-03-31T07:02:36.165Z,102076.77
2019-03-31T07:05:07.030Z,102074.21
2019-03-31T07:07:35.456Z,102074.21
2019-03-31T07:10:06.013Z,102071.52
2019-03-31T07:12:34.452Z,102079.00
2019-03-31T07:15:03.138Z,102094.71
2019-03-31T07:17:31.580Z,102100.83
2019-03-31T07:19:59.998Z,102089.54
2019-03-31T07:22:28.437Z,102098.27
2019-03-31T07:24:56.844Z,102096.94
2019-03-31T07:27:25.287Z,102116.05
2019-03-31T07:29:53.709Z,102119.77
2019-03-31T07:32:22.144Z,102118.38
2019-03-31T07:34:50.557Z,102107.95
2019-03-31T07:37:19.002Z,102121.33
2019-03-31T07:39:47.604Z,102128.95
2019-03-31T07:42:16.077Z,102133.89
2019-03-31T07:44:44.482Z,102137.53
2019-03-31T07:47:12.923Z,102127.25
2019-03-31T07:49:41.398Z,102146.26
2019-03-31T07:52:09.837Z,102131.47
2019-03-31T07:54:38.246Z,102134.64
2019-03-31T07:57:07.237Z,102124.91
2019-03-31T07:59:35.797Z,102143.27
2019-03-31T08:02:04.229Z,102141.28
2019-03-31T08:04:32.639Z,102141.72
2019-03-31T08:07:01.076Z,102142.86
2019-03-31T08:09:29.498Z,102136.06
2019-03-31T08:11:57.904Z,102138.38
2019-03-31T08:14:26.350Z,102146.84
2019-03-31T08:16:54.759Z,102144.30
2019-03-31T08:19:23.205Z,102136.61
2019-03-31T08:21:51.619Z,102140.02
2019-03-31T08:24:20.067Z,102146.57
2019-03-31T08:26:48.482Z,102159.23
2019-03-31T08:29:16.921Z,102162.94
2019-03-31T08:31:45.322Z,102159.02
2019-03-31T08:34:13.767Z,102159.28
2019-03-31T08:36:42.174Z,102170.02
2019-03-31T08:39:10.630Z,102177.92
2019-03-31T08:41:39.048Z,102173.13
2019-03-31T08:44:07.496Z,102172.78
2019-03-31T08:46:35.898Z,102167.97
2019-03-31T08:49:04.406Z,102166.25
2019-03-31T08:51:32.808Z,102174.09
2019-03-31T08:54:01.239Z,102174.72
2019-03-31T08:56:29.650Z,102173.59
2019-03-31T08:58:58.146Z,102180.88
2019-03-31T09:01:26.566Z,102177.32
2019-03-31T09:03:54.997Z,102177.17
2019-03-31T09:06:23.402Z,102187.08
2019-03-31T09:08:51.837Z,102197.19
2019-03-31T09:11:20.247Z,102193.61
2019-03-31T09:13:48.673Z,102190.73
2019-03-31T09:16:17.087Z,102190.95
2019-03-31T09:18:45.539Z,102215.70
2019-03-31T09:21:13.950Z,102225.66
2019-03-31T09:23:42.360Z,102220.02
2019-03-31T09:26:10.803Z,102221.11
2019-03-31T09:28:39.208Z,102222.72
2019-03-31T09:31:07.640Z,102213.69
2019-03-31T09:33:39.302Z,102222.42
2019-03-31T09:36:15.918Z,102233.13
2019-03-31T09:38:36.413Z,102224.22
2019-03-31T09:41:04.912Z,102246.76
2019-03-31T09:43:33.383Z,102238.42
2019-03-31T09:46:01.882Z,102245.66
2019-03-31T09:48:30.291Z,102250.36
2019-03-31T09:50:58.722Z,102253.52
2019-03-31T09:53:28.001Z,102246.15
2019-03-31T09:55:56.438Z,102249.07
2019-03-31T09:58:24.845Z,102252.20
2019-03-31T10:00:53.426Z,102253.94
2019-03-31T10:03:22.072Z,102250.25
2019-03-31T10:05:50.663Z,102261.61
2019-03-31T10:08:21.943Z,102252.70
2019-03-31T10:10:49.366Z,102252.66
2019-03-31T10:13:17.772Z,102247.97
2019-03-31T10:15:46.221Z,102244.66
2019-03-31T10:18:17.946Z,102236.13
2019-03-31T10:20:44.804Z,102242.94
2019-03-31T10:23:13.286Z,102243.63
2019-03-31T10:25:41.723Z,102240.20
2019-03-31T10:28:10.130Z,102249.14
2019-03-31T10:30:40.283Z,102255.09
2019-03-31T10:33:09.155Z,102260.30
2019-03-31T10:35:37.658Z,102261.86
2019-03-31T10:38:06.307Z,102268.50
2019-03-31T10:40:34.751Z,102270.67
2019-03-31T10:43:03.166Z,102270.92
2019-03-31T10:45:31.598Z,102272.64
2019-03-31T10:48:00.005Z,102269.12
2019-03-31T10:50:28.485Z,102262.19
2019-03-31T10:52:56.916Z,102268.31
2019-03-31T10:55:25.330Z,102271.04
2019-03-31T10:57:53.770Z,102260.95
2019-03-31T11:00:31.111Z,102263.67
2019-03-31T11:02:59.632Z,102271.56
2019-03-31T11:05:28.113Z,102263.97
2019-03-31T11:07:56.556Z,102266.16
2019-03-31T11:10:24.968Z,102258.76
2019-03-31T11:12:53.412Z,102264.13
2019-03-31T11:15:21.823Z,102261.20
2019-03-31T11:17:50.339Z,102258.32
2019-03-31T11:20:18.746Z,102252.52
2019-03-31T11:22:48.838Z,102259.69
2019-03-31T11:25:21.169Z,102263.45
2019-03-31T11:27:47.501Z,102252.86
2019-03-31T11:30:16.975Z,102267.22
2019-03-31T11:32:45.420Z,102256.27
2019-03-31T11:35:13.842Z,102270.13
2019-03-31T11:37:42.276Z,102275.08
2019-03-31T11:40:10.767Z,102280.51
2019-03-31T11:42:39.203Z,102285.78
2019-03-31T11:45:07.882Z,102273.69
2019-03-31T11:47:36.325Z,102277.78
2019-03-31T11:50:06.772Z,102285.16
2019-03-31T11:52:35.213Z,102282.27
2019-03-31T11:55:04.300Z,102290.27
2019-03-31T11:57:32.742Z,102298.47
2019-03-31T12:00:01.309Z,102299.86
2019-03-31T12:02:29.724Z,102293.02
2019-03-31T12:04:58.163Z,102274.73
2019-03-31T12:07:28.169Z,102300.19
2019-03-31T12:09:56.733Z,102287.56
2019-03-31T12:12:25.146Z,102296.95
2019-03-31T12:15:00.280Z,102302.77
2019-03-31T12:17:23.725Z,102301.40
2019-03-31T12:19:52.170Z,102291.63
2019-03-31T12:22:20.584Z,102298.28
2019-03-31T12:24:49.032Z,102312.49
2019-03-31T12:27:17.451Z,102309.23
2019-03-31T12:29:45.893Z,102301.73
2019-03-31T12:32:14.302Z,102292.84
2019-03-31T12:34:42.756Z,102297.96
2019-03-31T12:37:11.165Z,102297.13
2019-03-31T12:39:39.624Z,102299.34
2019-03-31T12:42:08.039Z,102291.28
2019-03-31T12:44:36.477Z,102297.93
2019-03-31T12:47:04.890Z,102300.81
2019-03-31T12:49:33.344Z,102280.83
2019-03-31T12:52:01.828Z,102290.43
2019-03-31T12:54:30.277Z,102301.21
2019-03-31T12:56:58.689Z,102304.61
2019-03-31T12:59:27.700Z,102306.52
2019-03-31T13:01:56.129Z,102294.00
2019-03-31T13:04:24.540Z,102292.62
2019-03-31T13:06:52.982Z,102313.30
2019-03-31T13:09:21.392Z,102314.00
2019-03-31T13:11:50.479Z,102306.52
2019-03-31T13:14:19.136Z,102306.50
2019-03-31T13:16:47.569Z,102299.67
2019-03-31T13:19:15.996Z,102318.95
2019-03-31T13:21:44.440Z,102314.00
2019-03-31T13:24:12.851Z,102313.86
2019-03-31T13:26:41.293Z,102310.28
2019-03-31T13:29:09.712Z,102317.79
2019-03-31T13:31:38.164Z,102320.86
2019-03-31T13:34:06.646Z,102310.61
2019-03-31T13:36:35.085Z,102305.48
2019-03-31T13:39:05.140Z,102316.07
2019-03-31T13:41:33.583Z,102317.61
2019-03-31T13:44:01.997Z,102318.13
2019-03-31T13:46:30.442Z,102314.19
2019-03-31T13:48:58.854Z,102316.59
2019-03-31T13:51:27.302Z,102317.78
2019-03-31T13:53:55.720Z,102323.77
2019-03-31T13:56:24.157Z,102320.88
2019-03-31T13:58:52.854Z,102321.05
2019-03-31T14:01:21.521Z,102315.41
2019-03-31T14:03:49.909Z,102315.56
2019-03-31T14:06:18.351Z,102313.86
2019-03-31T14:08:46.773Z,102311.28
2019-03-31T14:11:15.234Z,102304.78
2019-03-31T14:13:43.638Z,102310.56
2019-03-31T14:16:12.080Z,102313.12
2019-03-31T14:18:40.489Z,102315.89
2019-03-31T14:21:08.932Z,102321.03
2019-03-31T14:23:37.341Z,102318.44
2019-03-31T14:26:05.815Z,102325.78
2019-03-31T14:28:34.246Z,102317.39
2019-03-31T14:31:02.688Z,102328.33
2019-03-31T14:33:31.096Z,102329.19
2019-03-31T14:35:59.515Z,102315.89
2019-03-31T14:38:39.392Z,102324.94
2019-03-31T14:40:58.094Z,102319.09
2019-03-31T14:43:28.171Z,102323.19
2019-03-31T14:45:56.743Z,102327.80
2019-03-31T14:48:25.247Z,102321.30
2019-03-31T14:50:53.667Z,102321.59
2019-03-31T14:53:22.104Z,102329.27
2019-03-31T14:55:50.520Z,102340.16
2019-03-31T14:58:18.954Z,102330.73
2019-03-31T15:00:47.382Z,102340.17
2019-03-31T15:03:18.077Z,102334.89
2019-03-31T15:05:45.941Z,102324.05
2019-03-31T15:08:14.374Z,102326.60
2019-03-31T15:10:42.786Z,102330.89
2019-03-31T15:13:11.232Z,102325.42
2019-03-31T15:15:39.642Z,102328.16
2019-03-31T15:18:08.080Z,102327.57
2019-03-31T15:20:36.496Z,102330.78
2019-03-31T15:23:05.001Z,102322.91
2019-03-31T15:25:33.476Z,102333.16
2019-03-31T15:28:02.003Z,102341.91
2019-03-31T15:30:30.461Z,102335.92
2019-03-31T15:32:58.904Z,102334.73
2019-03-31T15:35:27.316Z,102342.22
2019-03-31T15:37:55.753Z,102339.23
2019-03-31T15:40:24.162Z,102341.53
2019-03-31T15:42:52.595Z,102344.50
2019-03-31T15:45:21.006Z,102345.24
2019-03-31T15:47:49.447Z,102342.47
2019-03-31T15:50:17.946Z,102346.60
2019-03-31T15:52:46.382Z,102340.66
2019-03-31T15:55:14.848Z,102348.95
2019-03-31T15:57:43.277Z,102346.05
2019-03-31T16:00:13.026Z,102349.52
2019-03-31T16:02:41.503Z,102353.57
2019-03-31T16:05:12.659Z,102359.95
2019-03-31T16:07:40.678Z,102351.06
2019-03-31T16:10:09.749Z,102357.95
2019-03-31T16:12:38.528Z,102351.27
2019-03-31T16:15:07.923Z,102362.11
2019-03-31T16:17:36.673Z,102358.13
2019-03-31T16:20:06.873Z,102359.77
2019-03-31T16:22:35.929Z,102358.02
2019-03-31T16:25:07.971Z,102364.80
2019-03-31T16:27:36.454Z,102364.90
2019-03-31T16:30:06.613Z,102372.69
2019-03-31T16:32:35.056Z,102369.11
2019-03-31T16:35:04.031Z,102372.19
2019-03-31T16:37:32.439Z,102371.67
2019-03-31T16:40:00.877Z,102372.39
2019-03-31T16:42:29.288Z,102375.59
2019-03-31T16:44:58.656Z,102374.05
2019-03-31T16:47:27.221Z,102376.06
2019-03-31T16:49:55.658Z,102378.45
2019-03-31T16:52:24.061Z,102374.59
2019-03-31T16:54:52.496Z,102380.81
2019-03-31T16:57:20.909Z,102378.64
2019-03-31T16:59:49.318Z,102373.95
2019-03-31T17:02:17.757Z,102372.50
2019-03-31T17:04:46.166Z,102371.17
2019-03-31T17:07:14.597Z,102367.55
2019-03-31T17:09:51.277Z,102375.61
2019-03-31T17:12:13.185Z,102380.73
2019-03-31T17:14:41.597Z,102379.73
2019-03-31T17:17:10.036Z,102385.22
2019-03-31T17:19:38.513Z,102385.67
2019-03-31T17:22:06.954Z,102390.61
2019-03-31T17:24:35.369Z,102392.50
2019-03-31T17:27:03.871Z,102390.42
2019-03-31T17:29:32.346Z,102391.73
2019-03-31T17:32:00.845Z,102401.66
2019-03-31T17:34:29.260Z,102405.48
2019-03-31T17:36:57.695Z,102397.47
2019-03-31T17:39:26.650Z,102406.20
2019-03-31T17:41:55.220Z,102402.52
2019-03-31T17:44:23.633Z,102403.97
2019-03-31T17:46:52.064Z,102407.52
2019-03-31T17:49:20.476Z,102409.23
2019-03-31T17:51:48.915Z,102398.95
2019-03-31T17:54:17.460Z,102406.60
2019-03-31T17:56:45.904Z,102416.98
2019-03-31T17:59:14.317Z,102409.42
2019-03-31T18:01:42.756Z,102409.42
2019-03-31T18:04:11.179Z,102421.79
2019-03-31T18:06:39.618Z,102421.79
2019-03-31T18:09:09.198Z,102416.21
2019-03-31T18:11:37.637Z,102412.42
2019-03-31T18:14:06.938Z,102412.42
2019-03-31T18:16:35.531Z,102426.27
2019-03-31T18:19:03.947Z,102426.27
2019-03-31T18:21:32.375Z,102436.56
2019-03-31T18:24:00.790Z,102445.83
2019-03-31T18:26:29.299Z,102445.83
2019-03-31T18:28:57.709Z,102443.73
2019-03-31T18:31:26.135Z,102455.59
2019-03-31T18:33:54.561Z,102461.18
2019-03-31T18:36:35.898Z,102461.18
2019-03-31T18:38:53.134Z,102462.66
2019-03-31T18:41:21.541Z,102470.18
2019-03-31T18:43:51.792Z,102466.38
2019-03-31T18:46:20.178Z,102467.01
2019-03-31T18:48:48.618Z,102460.47
2019-03-31T18:51:17.096Z,102469.21
2019-03-31T18:53:50.004Z,102473.25
2019-03-31T18:56:36.042Z,102466.22
2019-03-31T18:59:08.543Z,102478.86
2019-03-31T19:01:41.567Z,102481.17
2019-03-31T19:04:14.384Z,102486.67
2019-03-31T19:06:47.543Z,102483.74
2019-03-31T19:09:17.622Z,102489.02
2019-03-31T19:12:03.584Z,102492.53
2019-03-31T19:14:39.871Z,102505.50
2019-03-31T19:17:09.921Z,102500.78
2019-03-31T19:19:48.836Z,102504.78
2019-03-31T19:22:30.922Z,102505.86
2019-03-31T19:25:04.016Z,102503.89
2019-03-31T19:27:37.106Z,102495.63
2019-03-31T19:30:26.168Z,102499.04
2019-03-31T19:32:56.219Z,102495.70
2019-03-31T19:35:38.036Z,102498.13
2019-03-31T19:38:13.850Z,102501.19
2019-03-31T19:41:04.503Z,102506.36
2019-03-31T19:43:30.468Z,102507.86
2019-03-31T19:46:00.547Z,102507.28
2019-03-31T19:48:33.516Z,102509.21
2019-03-31T19:51:19.828Z,102515.50
2019-03-31T19:53:52.332Z,102515.56
2019-03-31T19:56:25.072Z,102525.84
2019-03-31T19:58:58.043Z,102526.83
2019-03-31T20:01:28.123Z,102531.69
2019-03-31T20:04:00.898Z,102528.67
2019-03-31T20:06:36.769Z,102534.98
2019-03-31T20:09:25.650Z,102532.78
2019-03-31T20:11:55.728Z,102533.86
2019-03-31T20:14:25.786Z,102540.22
2019-03-31T20:17:01.343Z,102542.13
2019-03-31T20:19:31.395Z,102546.25
2019-03-31T20:22:01.481Z,102536.14
2019-03-31T20:24:31.532Z,102539.75
2019-03-31T20:27:04.288Z,102548.92
2019-03-31T20:29:36.942Z,102544.63
2019-03-31T20:32:09.546Z,102537.72
2019-03-31T20:34:42.333Z,102544.59
2019-03-31T20:37:15.378Z,102547.30
2019-03-31T20:39:56.810Z,102551.03
2019-03-31T20:42:28.861Z,102543.25
2019-03-31T20:44:57.271Z,102544.81
2019-03-31T20:47:25.716Z,102539.77
2019-03-31T20:49:54.143Z,102547.00
2019-03-31T20:52:22.588Z,102546.91
2019-03-31T20:54:51.006Z,102550.27
2019-03-31T20:57:19.440Z,102550.08
2019-03-31T20:59:47.985Z,102547.88
2019-03-31T21:02:16.740Z,102555.37
2019-03-31T21:04:45.156Z,102558.14
2019-03-31T21:07:13.596Z,102561.31
2019-03-31T21:09:45.175Z,102568.14
2019-03-31T21:12:12.177Z,102565.53
2019-03-31T21:14:40.590Z,102569.30
2019-03-31T21:17:09.033Z,102569.00
2019-03-31T21:19:37.451Z,102565.52
2019-03-31T21:22:05.864Z,102572.42
2019-03-31T21:24:34.313Z,102581.38
2019-03-31T21:27:02.765Z,102582.90
2019-03-31T21:29:31.247Z,102582.52
2019-03-31T21:31:59.667Z,102584.97
2019-03-31T21:34:28.182Z,102586.31
2019-03-31T21:36:56.609Z,102587.56
2019-03-31T21:39:25.054Z,102595.31
2019-03-31T21:41:53.468Z,102600.52
2019-03-31T21:44:21.914Z,102603.33
2019-03-31T21:46:50.339Z,102599.69
2019-03-31T21:49:18.776Z,102606.22
2019-03-31T21:51:47.191Z,102608.12
2019-03-31T21:54:15.633Z,102607.75
2019-03-31T21:56:44.056Z,102606.87
2019-03-31T21:59:12.502Z,102604.34
2019-03-31T22:01:40.993Z,102607.18
2019-03-31T22:04:09.443Z,102609.36
2019-03-31T22:06:37.855Z,102609.84
2019-03-31T22:09:08.877Z,102608.67
2019-03-31T22:11:37.293Z,102604.17
2019-03-31T22:14:05.733Z,102603.03
2019-03-31T22:16:34.157Z,102603.10
2019-03-31T22:19:02.595Z,102604.83
2019-03-31T22:21:31.012Z,102609.17
2019-03-31T22:23:59.457Z,102609.23
2019-03-31T22:26:27.874Z,102608.34
2019-03-31T22:28:56.444Z,102612.84
2019-03-31T22:31:24.928Z,102612.20
2019-03-31T22:33:53.349Z,102613.27
2019-03-31T22:36:21.834Z,102616.73
2019-03-31T22:38:51.729Z,102623.07
2019-03-31T22:41:20.248Z,102622.93
2019-03-31T22:43:51.652Z,102620.00
2019-03-31T22:46:20.165Z,102626.55
2019-03-31T22:48:48.595Z,102624.38
2019-03-31T22:51:17.118Z,102622.60
2019-03-31T22:53:45.539Z,102625.34
2019-03-31T22:56:13.987Z,102621.53
2019-03-31T22:58:42.476Z,102621.05
2019-03-31T23:01:10.999Z,102618.74
2019-03-31T23:03:39.413Z,102622.13
2019-03-31T23:06:07.859Z,102618.64
2019-03-31T23:08:36.281Z,102619.54
2019-03-31T23:11:04.879Z,102620.56
2019-03-31T23:13:33.291Z,102624.75
2019-03-31T23:16:01.801Z,102616.87
2019-03-31T23:18:30.217Z,102621.75
2019-03-31T23:20:58.655Z,102621.95
2019-03-31T23:23:27.068Z,102623.94
2019-03-31T23:25:55.514Z,102627.48
2019-03-31T23:28:23.938Z,102624.17
2019-03-31T23:30:52.359Z,102630.30
2019-03-31T23:33:20.806Z,102633.14
2019-03-31T23:35:49.225Z,102634.74
2019-03-31T23:38:17.675Z,102635.60
2019-03-31T23:40:46.098Z,102630.18
2019-03-31T23:43:14.543Z,102633.72
2019-03-31T23:45:42.976Z,102637.04
2019-03-31T23:48:11.416Z,102639.72
2019-03-31T23:50:39.829Z,102637.58
2019-03-31T23:53:08.274Z,102639.91
2019-03-31T23:55:36.690Z,102637.55
2019-03-31T23:58:05.138Z,102640.39
